Airfield :
LOGIN :

Register | Disclaimer

   EN    FR    IT 

 










Legend :    VFR   Marginal VFR   IFR   Intensive IFR   Very Intensive IFR
Visi :
Ceiling :
>= 8 km
>= 3000ft
5 to 8 km
1000 to 3000 ft
1500m to 5 km
500 to 1000 ft
800 to 1500m
200 to 500 ft
< 800m
< 200 ft
Symbols :   Thunderstorms  Fog  Heavy snow  Heavy precipitations  Wind > 20 kt
SIGMETs :     Misc.  Thunderstorms  Icing  Turbulence  Mountain Waves  Volcanic Ashes






- Airport Elevation : 390 ft
- IATA code : NQY


EGHQ - Newquay

CURRENT METAR :
  • 252150Z AUTO 26014KT 9999 BKN023/// 10/07 Q0997 RERA

EXPIRED METARs :
  • 252120Z AUTO 24015G26KT 9999 SCT024/// BKN045/// 09/06 Q0997 RERA
  • 252050Z AUTO 24012KT 9999 SCT029/// 10/07 Q0997
  • 252020Z AUTO 26011KT 9999 SCT027/// 10/06 Q0996
  • 251950Z AUTO 24006KT 9999 BKN027/// 10/07 Q0996
  • 251920Z 24006KT 9999 FEW023 09/06 Q0996

TAF TAF EGHQ
Valid from the 25 at 21:00 until the 26 at 06:00 UTC


251957Z 2521/2606 22009KT 9999 SCT040
TEMPO 2521/2606 22015G25KT 7000 SHRA BKN014
PROB30
TEMPO 2521/2606 3000 +TSRA



MET'MAP, your aeronautical weather chart ! - Copyright ORBIFLY December 2007 - Disclaimer

ORBIFLY MET'MAP TEAM :

Programming & Development : Alexandra Zaïnal
Concept & original design : Baudouin d'Aumeries
Assistance for programming : Marc-Olivier Méhu
Technical & hardware support : Manuel Goepfert

Contact : metmap@orbifly.com




SOURCES & CREDITS :

   NOAA